Time;durP1;ratioP1;P1;durP2;ratioP2;P2;SDS_P1;SDS_P2;PMS_P1;PMS_P2;Temp;Humidity;BMP_temperature;BMP_pressure;BME280_temperature;BME280_humidity;BME280_pressure;Samples;Min_cycle;Max_cycle;Signal;HPM_P1;HPM_P2
2022/10/03 00:02:00;;;;;;;18.83;2.85;;;;;;;;;;5016725;28;20095;-65
2022/10/03 00:04:46;;;;;;;15.73;3.03;;;;;;;;;;5010001;28;20049;-65
2022/10/03 00:07:31;;;;;;;16.55;2.35;;;;;;;;;;4978922;28;20403;-65
2022/10/03 00:10:15;;;;;;;9.88;2.97;;;;;;;;;;5009914;28;20037;-65
2022/10/03 00:13:26;;;;;;;14.90;2.65;;;11.70;99.90;;;;;;5003025;28;20405;-65
2022/10/03 00:16:10;;;;;;;11.65;2.47;;;;;;;;;;4991908;28;20042;-66
2022/10/03 00:19:02;;;;;;;15.50;2.47;;;10.80;99.90;;;;;;5009164;28;20092;-65
2022/10/03 00:21:37;;;;;;;12.38;3.13;;;;;;;;;;5009456;28;20381;-65
2022/10/03 00:24:22;;;;;;;15.73;3.92;;;;;;;;;;5009512;28;20069;-65
2022/10/03 00:26:51;;;;;;;13.50;2.45;;;;;;;;;;5009665;28;20053;-65
2022/10/03 00:29:36;;;;;;;14.45;3.20;;;;;;;;;;5006321;28;20137;-65
2022/10/03 00:32:01;;;;;;;;;;;;;;;;;;5010463;28;20220;-65
2022/10/03 00:34:33;;;;;;;11.43;2.38;;;11.40;99.90;;;;;;5012723;28;19970;-65
2022/10/03 00:37:13;;;;;;;12.25;2.40;;;;;;;;;;5011748;28;20038;-65
2022/10/03 00:39:42;;;;;;;13.85;2.72;;;;;;;;;;5012995;28;20116;-64
2022/10/03 00:42:14;;;;;;;15.05;2.88;;;;;;;;;;5104965;22;20463;-65
2022/10/03 00:44:51;;;;;;;16.13;2.85;;;;;;;;;;4991480;28;20039;-65
2022/10/03 00:47:17;;;;;;;13.82;3.65;;;;;;;;;;5008559;28;20065;-66
2022/10/03 00:50:04;;;;;;;12.43;2.70;;;11.60;99.90;;;;;;4999455;28;20091;-66
2022/10/03 00:53:13;;;;;;;13.57;3.10;;;10.90;99.90;;;;;;5007562;28;20050;-66
2022/10/03 00:55:50;;;;;;;11.90;2.63;;;11.60;99.90;;;;;;4906065;29;20502;-65
2022/10/03 00:58:49;;;;;;;13.43;2.67;;;12.00;99.90;;;;;;4998746;28;20058;-66
2022/10/03 01:01:23;;;;;;;9.80;2.35;;;;;;;;;;5001019;28;20040;-65
2022/10/03 01:04:09;;;;;;;12.70;2.75;;;;;;;;;;5007761;28;20037;-65
2022/10/03 01:06:55;;;;;;;12.32;2.85;;;;;;;;;;4999769;28;20121;-66
2022/10/03 01:09:50;;;;;;;15.25;2.95;;;11.70;99.90;;;;;;4999826;28;20446;-66
2022/10/03 01:12:34;;;;;;;10.52;2.50;;;12.00;99.90;;;;;;4992454;28;20039;-66
2022/10/03 01:15:18;;;;;;;12.90;2.50;;;12.00;99.90;;;;;;5000236;28;20037;-66
2022/10/03 01:18:12;;;;;;;16.60;3.15;;;11.40;99.90;;;;;;5005466;28;20683;-66
2022/10/03 01:20:59;;;;;;;13.95;2.78;;;;;;;;;;5007923;28;20046;-65
2022/10/03 01:23:37;;;;;;;12.00;2.50;;;11.40;99.90;;;;;;4989325;28;20558;-66
2022/10/03 01:26:21;;;;;;;12.73;2.97;;;11.60;99.90;;;;;;4978797;28;20052;-66
2022/10/03 01:32:04;;;;;;;12.55;3.08;;;;;;;;;;5010392;28;20277;-66
2022/10/03 01:34:51;;;;;;;11.85;2.25;;;11.90;99.90;;;;;;4999850;28;20042;-66
2022/10/03 01:37:26;;;;;;;11.52;2.40;;;;;;;;;;5009819;28;20387;-65
2022/10/03 01:40:10;;;;;;;12.68;2.55;;;10.90;99.90;;;;;;5002590;28;20068;-66
2022/10/03 01:42:43;;;;;;;11.70;2.25;;;10.90;99.90;;;;;;4995976;28;20500;-66
2022/10/03 01:45:35;;;;;;;10.95;2.20;;;11.10;99.90;;;;;;4990768;28;20442;-67
2022/10/03 01:48:25;;;;;;;11.40;2.47;;;11.00;99.90;;;;;;5003536;28;20041;-66
2022/10/03 01:51:05;;;;;;;11.38;2.22;;;10.80;99.90;;;;;;5008266;28;20030;-65
2022/10/03 01:54:06;;;;;;;14.85;3.78;;;10.70;99.90;;;;;;5001083;28;20050;-65
2022/10/03 01:56:43;;;;;;;11.80;2.53;;;;;;;;;;4987933;28;20057;-66
2022/10/03 01:59:30;;;;;;;9.95;2.35;;;10.80;99.90;;;;;;4989045;28;20041;-65
2022/10/03 02:02:10;;;;;;;9.38;1.75;;;;;;;;;;4992892;28;20485;-65
2022/10/03 02:04:52;;;;;;;13.02;2.30;;;;;;;;;;5005149;28;20034;-66
2022/10/03 02:07:32;;;;;;;11.30;2.88;;;11.00;99.90;;;;;;5008427;28;20037;-65
2022/10/03 02:10:18;;;;;;;11.15;2.45;;;;;;;;;;5002318;28;20484;-65
2022/10/03 02:13:18;;;;;;;10.88;2.50;;;10.80;99.90;;;;;;5008536;28;20141;-65
2022/10/03 02:16:03;;;;;;;11.07;2.35;;;10.90;99.90;;;;;;5002260;28;20574;-65
2022/10/03 02:18:30;;;;;;;;;;;;;;;;;;5006646;28;20042;-65
2022/10/03 02:21:08;;;;;;;11.30;2.42;;;;;;;;;;5005448;28;19921;-66
2022/10/03 02:23:35;;;;;;;11.73;2.13;;;11.10;99.90;;;;;;5008099;28;20408;-65
2022/10/03 02:26:19;;;;;;;13.90;2.85;;;;;;;;;;5006175;28;20042;-65
2022/10/03 02:29:04;;;;;;;13.88;2.45;;;10.70;99.90;;;;;;5001452;28;20117;-65
2022/10/03 02:31:42;;;;;;;10.50;2.03;;;;;;;;;;5006836;28;20491;-65
2022/10/03 02:34:33;;;;;;;12.18;2.35;;;;;;;;;;4981701;28;20037;-65
2022/10/03 02:37:35;;;;;;;15.63;2.47;;;10.90;99.90;;;;;;5004660;28;20050;-66
2022/10/03 02:40:08;;;;;;;10.32;2.40;;;;;;;;;;4988335;28;20499;-66
2022/10/03 02:42:37;;;;;;;11.35;2.35;;;;;;;;;;4992077;28;20042;-65
2022/10/03 02:45:27;;;;;;;14.27;2.22;;;;;;;;;;4985539;28;20092;-65
2022/10/03 02:47:58;;;;;;;12.25;1.92;;;;;;;;;;4999043;28;20038;-65
2022/10/03 02:50:50;;;;;;;13.85;2.20;;;11.30;99.90;;;;;;5007882;28;20041;-65
2022/10/03 02:53:37;;;;;;;10.32;2.08;;;10.00;99.90;;;;;;4985370;28;20082;-65
2022/10/03 02:56:12;;;;;;;12.80;2.55;;;10.80;99.90;;;;;;5002993;28;20038;-65
2022/10/03 02:59:13;;;;;;;8.73;2.13;;;10.90;99.90;;;;;;5001425;28;20096;-66
2022/10/03 03:01:55;;;;;;;7.70;1.85;;;10.30;99.90;;;;;;4978239;28;20415;-65
2022/10/03 03:04:40;;;;;;;9.10;2.20;;;11.10;99.90;;;;;;5004748;28;20116;-65
2022/10/03 03:07:14;;;;;;;13.68;2.22;;;10.20;99.90;;;;;;4990094;28;20488;-65
2022/10/03 03:09:46;;;;;;;9.15;2.25;;;;;;;;;;5012850;22;20050;-72
2022/10/03 03:12:32;;;;;;;12.63;2.40;;;10.50;99.90;;;;;;5016935;28;20135;-72
2022/10/03 03:15:07;;;;;;;14.75;2.30;;;;;;;;;;4994241;28;20049;-72
2022/10/03 03:17:52;;;;;;;10.95;2.40;;;;;;;;;;4992263;28;20042;-72
2022/10/03 03:20:24;;;;;;;11.20;2.25;;;10.60;99.90;;;;;;4984394;28;20531;-72
2022/10/03 03:23:14;;;;;;;13.52;2.25;;;10.50;99.90;;;;;;5009861;28;20030;-72
2022/10/03 03:26:21;;;;;;;11.50;2.13;;;10.50;99.90;;;;;;5007125;28;20042;-73
2022/10/03 03:28:56;;;;;;;16.77;2.83;;;;;;;;;;4966645;28;20500;-72
2022/10/03 03:31:40;;;;;;;14.18;2.70;;;;;;;;;;5001650;28;20137;-72
2022/10/03 03:34:12;;;;;;;14.88;2.58;;;;;;;;;;4979468;28;20056;-72
2022/10/03 03:36:50;;;;;;;12.88;2.28;;;;;;;;;;5010292;28;20041;-72
2022/10/03 03:39:35;;;;;;;12.23;2.75;;;;;;;;;;4997295;28;20457;-72
2022/10/03 03:42:21;;;;;;;13.75;2.67;;;;;;;;;;4996333;28;20056;-72
2022/10/03 03:45:06;;;;;;;16.15;2.70;;;;;;;;;;5004966;28;20501;-72
2022/10/03 03:47:47;;;;;;;13.45;2.75;;;;;;;;;;4996581;28;20042;-72
2022/10/03 03:50:26;;;;;;;15.07;2.88;;;9.90;99.90;;;;;;4989908;28;20038;-72
2022/10/03 03:53:06;;;;;;;8.57;2.10;;;;;;;;;;5001606;28;20053;-72
2022/10/03 03:55:32;;;;;;;9.95;2.08;;;;;;;;;;4987766;28;20095;-72
2022/10/03 03:58:17;;;;;;;15.38;2.50;;;;;;;;;;4995264;28;20428;-72
2022/10/03 04:00:43;;;;;;;;;;;;;;;;;;4989062;28;20046;-72
2022/10/03 04:03:11;;;;;;;11.52;2.90;;;;;;;;;;5004517;28;20045;-72
2022/10/03 04:05:52;;;;;;;12.27;2.45;;;;;;;;;;4994259;28;20128;-72
2022/10/03 04:08:36;;;;;;;11.70;3.00;;;10.30;99.90;;;;;;5006626;28;20050;-72
2022/10/03 04:11:05;;;;;;;8.40;2.35;;;;;;;;;;4993211;28;20034;-72
2022/10/03 04:13:53;;;;;;;13.30;2.65;;;11.00;99.90;;;;;;4990064;28;20507;-72
2022/10/03 04:19:25;;;;;;;14.73;4.03;;;;;;;;;;5002258;28;20136;-72
2022/10/03 04:22:21;;;;;;;12.80;3.42;;;10.50;99.90;;;;;;4989805;28;20044;-72
2022/10/03 04:24:53;;;;;;;12.00;3.85;;;;;;;;;;4992707;28;20053;-72
2022/10/03 04:27:46;;;;;;;10.18;2.50;;;;;;;;;;4978473;28;20054;-72
2022/10/03 04:30:28;;;;;;;11.63;2.45;;;10.40;99.90;;;;;;4977640;28;20510;-72
2022/10/03 04:32:56;;;;;;;10.52;2.30;;;;;;;;;;4984065;28;20129;-72
2022/10/03 04:35:56;;;;;;;14.57;2.78;;;10.10;99.90;;;;;;4979396;28;20059;-72
2022/10/03 04:38:31;;;;;;;16.88;2.72;;;10.10;99.90;;;;;;5002906;28;20038;-72
2022/10/03 04:41:36;;;;;;;11.88;3.13;;;10.30;99.90;;;;;;4980687;28;20046;-72
2022/10/03 04:44:37;;;;;;;11.68;2.40;;;9.70;99.90;;;;;;5000989;28;20034;-72
2022/10/03 04:47:14;;;;;;;17.48;3.03;;;;;;;;;;4980146;28;20518;-72
2022/10/03 04:49:51;;;;;;;9.25;2.28;;;;;;;;;;4994995;28;20479;-72
2022/10/03 04:52:21;;;;;;;15.88;3.40;;;9.90;99.90;;;;;;4981337;28;20383;-73
2022/10/03 04:55:06;;;;;;;12.15;2.88;;;9.30;99.90;;;;;;4981211;28;20416;-73
2022/10/03 04:57:58;;;;;;;10.93;3.13;;;;;;;;;;4957459;28;20043;-73
2022/10/03 05:00:48;;;;;;;11.23;2.90;;;10.30;99.90;;;;;;4982567;28;20274;-73
2022/10/03 05:03:20;;;;;;;7.50;1.80;;;;;;;;;;4999287;28;20041;-73
2022/10/03 05:05:56;;;;;;;11.48;2.10;;;;;;;;;;4977092;28;20039;-73
2022/10/03 05:08:37;;;;;;;7.45;1.98;;;;;;;;;;4951703;28;20038;-73
2022/10/03 05:11:18;;;;;;;14.27;2.40;;;;;;;;;;4956317;28;20047;-73
2022/10/03 05:13:59;;;;;;;9.77;2.33;;;10.10;99.90;;;;;;4956123;28;20405;-73
2022/10/03 05:16:45;;;;;;;11.25;2.50;;;;;;;;;;4958276;28;20458;-73
2022/10/03 05:19:32;;;;;;;13.70;2.42;;;;;;;;;;4959703;28;20042;-73
2022/10/03 05:22:11;;;;;;;9.43;2.22;;;;;;;;;;4965416;28;20050;-72
2022/10/03 05:24:46;;;;;;;12.63;2.45;;;;;;;;;;4986842;28;20050;-73
2022/10/03 05:27:22;;;;;;;13.50;2.65;;;9.70;99.90;;;;;;5004994;28;20221;-72
2022/10/03 05:29:57;;;;;;;10.45;2.45;;;;;;;;;;4998051;28;21141;-73
2022/10/03 05:32:27;;;;;;;11.23;2.83;;;;;;;;;;4984803;28;20101;-72
2022/10/03 05:35:19;;;;;;;13.10;2.78;;;;;;;;;;4985010;28;20033;-72
2022/10/03 05:38:04;;;;;;;12.60;3.33;;;;;;;;;;4967468;28;20115;-73
2022/10/03 05:40:33;;;;;;;9.02;2.88;;;;;;;;;;4967703;28;20039;-72
2022/10/03 05:43:22;;;;;;;24.90;3.95;;;;;;;;;;4972063;28;20036;-72
2022/10/03 05:46:15;;;;;;;9.50;3.00;;;;;;;;;;4950860;28;20468;-72
2022/10/03 05:48:48;;;;;;;14.02;3.95;;;;;;;;;;4985715;28;20052;-73
2022/10/03 05:51:38;;;;;;;17.98;3.90;;;;;;;;;;4997616;28;20034;-72
2022/10/03 05:54:10;;;;;;;12.40;3.10;;;;;;;;;;4947577;28;20395;-72
2022/10/03 05:56:51;;;;;;;15.70;3.45;;;;;;;;;;4998775;28;20046;-72
2022/10/03 05:59:17;;;;;;;13.75;3.50;;;;;;;;;;4980322;28;20125;-72
2022/10/03 06:01:59;;;;;;;12.75;3.95;;;;;;;;;;4983934;28;20121;-72
2022/10/03 06:04:28;;;;;;;16.10;3.97;;;;;;;;;;4981539;28;20038;-72
2022/10/03 06:07:18;;;;;;;11.05;3.88;;;9.20;99.90;;;;;;4971233;28;20518;-73
2022/10/03 06:09:53;;;;;;;14.60;3.50;;;9.30;99.90;;;;;;4996875;28;20038;-72
2022/10/03 06:12:28;;;;;;;12.40;3.80;;;;;;;;;;4997975;28;20523;-72
2022/10/03 06:15:01;;;;;;;14.60;4.13;;;;;;;;;;4979230;28;20037;-72
2022/10/03 06:17:30;;;;;;;19.50;4.28;;;;;;;;;;5001962;28;20037;-73
2022/10/03 06:20:22;;;;;;;18.80;4.53;;;9.60;99.90;;;;;;4982611;28;20041;-72
2022/10/03 06:23:07;;;;;;;8.60;4.43;;;;;;;;;;4992087;28;20053;-72
2022/10/03 06:25:51;;;;;;;9.93;4.15;;;;;;;;;;4977491;28;20088;-72
2022/10/03 06:28:59;;;;;;;14.93;4.43;;;9.80;99.90;;;;;;4976689;28;20519;-72
2022/10/03 06:31:50;;;;;;;18.70;4.78;;;;;;;;;;4977058;28;20049;-72
2022/10/03 06:34:53;;;;;;;12.23;4.00;;;9.80;99.90;;;;;;4998880;28;20510;-72
2022/10/03 06:37:37;;;;;;;15.27;4.22;;;9.70;99.90;;;;;;4990518;28;20043;-72
2022/10/03 06:40:32;;;;;;;11.93;3.58;;;;;;;;;;4971641;28;20513;-72
2022/10/03 06:42:59;;;;;;;12.43;4.13;;;;;;;;;;4979007;23;20056;-89
2022/10/03 06:45:43;;;;;;;11.73;3.83;;;;;;;;;;4985800;28;20045;-89
2022/10/03 06:48:24;;;;;;;12.15;4.00;;;;;;;;;;4956189;28;20452;-89
2022/10/03 06:51:05;;;;;;;10.88;3.55;;;;;;;;;;5003070;28;20045;-86
2022/10/03 06:53:50;;;;;;;15.82;4.30;;;;;;;;;;5005012;28;20096;-88
2022/10/03 06:56:25;;;;;;;14.18;4.00;;;;;;;;;;5019269;28;20049;-89
2022/10/03 06:59:18;;;;;;;14.35;4.50;;;;;;;;;;4989807;28;20052;-88
2022/10/03 07:01:56;;;;;;;14.35;4.75;;;;;;;;;;4976050;28;20788;-89
2022/10/03 07:04:42;;;;;;;11.00;3.78;;;;;;;;;;5017360;28;20083;-89
2022/10/03 07:07:20;;;;;;;16.98;3.50;;;;;;;;;;4984758;28;20125;-89
2022/10/03 07:09:53;;;;;;;12.52;3.42;;;;;;;;;;4970846;28;20049;-90
2022/10/03 07:12:38;;;;;;;13.65;3.88;;;;;;;;;;4997908;28;20053;-89
2022/10/03 07:15:04;;;;;;;;;;;;;;;;;;4993730;28;20415;-89
2022/10/03 07:17:40;;;;;;;9.68;3.63;;;;;;;;;;5000242;28;20451;-89
2022/10/03 07:20:24;;;;;;;13.27;3.53;;;;;;;;;;4973678;28;20073;-89
2022/10/03 07:22:51;;;;;;;9.48;3.40;;;;;;;;;;4980219;28;20096;-89
2022/10/03 07:25:26;;;;;;;12.05;3.47;;;;;;;;;;4971800;28;20107;-88
2022/10/03 07:28:19;;;;;;;11.95;3.22;;;;;;;;;;5010929;28;20124;-87
2022/10/03 07:31:06;;;;;;;8.80;3.47;;;;;;;;;;4984911;28;20054;-89
2022/10/03 07:34:05;;;;;;;12.20;3.40;;;;;;;;;;4994542;28;20041;-88
2022/10/03 07:40:11;;;;;;;11.90;2.97;;;;;;;;;;4906250;28;20042;-89
2022/10/03 07:42:38;;;;;;;13.95;5.18;;;;;;;;;;5012934;28;20053;-89
2022/10/03 07:45:07;;;;;;;11.40;5.85;;;;;;;;;;4991106;28;20644;-90
2022/10/03 07:47:39;;;;;;;11.18;3.13;;;;;;;;;;4987668;28;20161;-88
2022/10/03 07:50:24;;;;;;;11.57;2.72;;;;;;;;;;5020413;28;20049;-89
2022/10/03 07:53:06;;;;;;;10.85;2.90;;;;;;;;;;4997177;28;20041;-89
2022/10/03 07:55:47;;;;;;;11.82;2.92;;;;;;;;;;4985541;28;20111;-89
2022/10/03 07:58:33;;;;;;;12.60;3.20;;;;;;;;;;5012677;28;20044;-88
2022/10/03 08:01:08;;;;;;;12.20;3.20;;;;;;;;;;4990282;28;20520;-89
2022/10/03 08:03:43;;;;;;;11.13;2.28;;;;;;;;;;4980413;28;20046;-90
2022/10/03 08:06:17;;;;;;;8.52;2.60;;;;;;;;;;5004188;28;20069;-89
2022/10/03 08:08:49;;;;;;;9.13;2.47;;;;;;;;;;4973759;28;20128;-90
2022/10/03 08:11:15;;;;;;;11.68;2.72;;;;;;;;;;4996748;28;20320;-88
2022/10/03 08:14:00;;;;;;;8.15;2.58;;;;;;;;;;4999006;28;20503;-88
2022/10/03 08:16:26;;;;;;;9.10;2.50;;;;;;;;;;5007937;28;20111;-90
2022/10/03 08:18:55;;;;;;;8.25;2.88;;;;;;;;;;4984039;28;20045;-89
2022/10/03 08:21:32;;;;;;;10.07;2.10;;;;;;;;;;5016674;28;20044;-89
2022/10/03 08:24:12;;;;;;;7.38;2.17;;;;;;;;;;5002323;28;20037;-88
2022/10/03 08:27:15;;;;;;;10.75;3.05;;;13.80;99.90;;;;;;5016671;28;20048;-90
2022/10/03 08:30:01;;;;;;;8.77;2.28;;;;;;;;;;4996483;28;20091;-90
2022/10/03 08:32:34;;;;;;;12.52;2.70;;;;;;;;;;4986829;28;20052;-89
2022/10/03 08:35:06;;;;;;;9.32;2.10;;;;;;;;;;4975695;28;20144;-89
2022/10/03 08:37:53;;;;;;;9.15;3.08;;;;;;;;;;5009162;28;20046;-90
2022/10/03 08:40:28;;;;;;;7.35;2.10;;;;;;;;;;4957046;28;20052;-88
2022/10/03 08:43:04;;;;;;;9.20;2.13;;;;;;;;;;4992792;28;20086;-89
2022/10/03 08:45:46;;;;;;;9.02;2.13;;;;;;;;;;5007477;28;20045;-87
2022/10/03 08:48:29;;;;;;;5.53;1.48;;;;;;;;;;4993119;28;20425;-90
2022/10/03 08:51:01;;;;;;;8.48;1.95;;;;;;;;;;4993299;28;20037;-88
2022/10/03 08:53:49;;;;;;;6.45;1.50;;;;;;;;;;5014345;28;20057;-90
2022/10/03 08:56:15;;;;;;;8.25;1.60;;;;;;;;;;5017513;28;20595;-89
2022/10/03 08:59:00;;;;;;;7.32;1.75;;;;;;;;;;4999092;28;20120;-90
2022/10/03 09:01:26;;;;;;;;;;;;;;;;;;5021489;28;20413;-89
2022/10/03 09:04:10;;;;;;;9.20;1.67;;;;;;;;;;5001746;28;19925;-88
2022/10/03 09:06:51;;;;;;;6.03;1.77;;;;;;;;;;5022683;28;20490;-90
2022/10/03 09:09:36;;;;;;;9.05;2.00;;;;;;;;;;5020269;28;20081;-89
2022/10/03 09:12:02;;;;;;;;;;;;;;;;;;4993113;28;20063;-91
2022/10/03 09:14:33;;;;;;;9.10;1.50;;;;;;;;;;5021562;28;19920;-88
2022/10/03 09:17:13;;;;;;;7.90;1.55;;;;;;;;;;4976508;28;20069;-90
2022/10/03 09:19:48;;;;;;;7.15;2.40;;;;;;;;;;5012523;28;20103;-90
2022/10/03 09:22:44;;;;;;;6.00;1.13;;;;;;;;;;5014188;28;20177;-89
2022/10/03 09:25:13;;;;;;;6.70;1.50;;;;;;;;;;4996638;28;20049;-88
2022/10/03 09:27:50;;;;;;;6.28;1.45;;;;;;;;;;4981206;28;20046;-89
2022/10/03 09:30:40;;;;;;;7.25;1.42;;;;;;;;;;4994396;28;20547;-90
2022/10/03 09:33:19;;;;;;;7.07;1.40;;;;;;;;;;4978925;28;20045;-89
2022/10/03 09:35:47;;;;;;;7.45;1.73;;;;;;;;;;5005278;28;20048;-90
2022/10/03 09:38:16;;;;;;;6.65;1.52;;;;;;;;;;5006332;28;20060;-89
2022/10/03 09:40:42;;;;;;;9.80;1.50;;;;;;;;;;4997353;28;20493;-90
2022/10/03 09:43:11;;;;;;;6.70;1.48;;;;;;;;;;5004860;28;20038;-89
2022/10/03 09:46:01;;;;;;;9.82;1.83;;;;;;;;;;4980580;28;20045;-89
2022/10/03 09:48:37;;;;;;;9.70;1.92;;;;;;;;;;4975728;28;20045;-89
2022/10/03 09:51:05;;;;;;;6.97;1.77;;;;;;;;;;5010453;28;20048;-90
2022/10/03 09:53:43;;;;;;;4.18;1.20;;;;;;;;;;4987760;28;20042;-89
2022/10/03 09:56:29;;;;;;;9.50;1.63;;;;;;;;;;5008843;28;20064;-90
2022/10/03 09:59:13;;;;;;;7.03;1.75;;;;;;;;;;5017243;28;20057;-89
2022/10/03 10:01:58;;;;;;;8.57;1.55;;;;;;;;;;5017720;28;20042;-89
2022/10/03 10:04:24;;;;;;;7.20;1.67;;;;;;;;;;5014331;28;20129;-90
2022/10/03 10:07:19;;;;;;;7.22;1.40;;;;;;;;;;5019862;28;20764;-88
2022/10/03 10:09:45;;;;;;;;;;;;;;;;;;5017738;28;20044;-90
2022/10/03 10:12:30;;;;;;;7.28;1.60;;;;;;;;;;4993023;28;19917;-89
2022/10/03 10:14:56;;;;;;;;;;;;;;;;;;5010732;28;20067;-86
2022/10/03 10:17:31;;;;;;;7.55;1.30;;;;;;;;;;5018708;28;19917;-88
2022/10/03 10:20:15;;;;;;;5.80;1.50;;;;;;;;;;5012081;28;20408;-87
2022/10/03 10:23:03;;;;;;;8.05;1.60;;;;;;;;;;4996813;28;20046;-86
2022/10/03 10:25:32;;;;;;;7.30;1.40;;;;;;;;;;4999542;28;20033;-90
2022/10/03 10:28:01;;;;;;;6.15;1.40;;;;;;;;;;5016737;28;20045;-89
2022/10/03 10:30:45;;;;;;;8.82;2.25;;;;;;;;;;5017623;28;20497;-89
2022/10/03 10:33:30;;;;;;;6.38;1.45;;;;;;;;;;4988792;28;20597;-89
2022/10/03 10:35:58;;;;;;;;;;;;;;;;;;5003850;28;20079;-89
2022/10/03 10:38:50;;;;;;;9.43;1.65;;;;;;;;;;5018604;28;19966;-89
2022/10/03 10:41:38;;;;;;;8.07;1.30;;;;;;;;;;4980756;28;20038;-89
2022/10/03 10:44:20;;;;;;;5.00;1.30;;;;;;;;;;4994089;28;20111;-88
2022/10/03 10:47:05;;;;;;;6.18;1.33;;;;;;;;;;5000749;28;20092;-88
2022/10/03 10:49:44;;;;;;;7.90;1.70;;;;;;;;;;4987237;28;20037;-89
2022/10/03 10:52:36;;;;;;;6.50;1.50;;;;;;;;;;5017777;28;20034;-89
2022/10/03 10:55:03;;;;;;;7.68;1.42;;;;;;;;;;5002895;28;20787;-90
2022/10/03 10:57:42;;;;;;;5.93;1.67;;;;;;;;;;5017934;28;20116;-88
2022/10/03 11:00:14;;;;;;;7.85;1.50;;;;;;;;;;4982273;28;20120;-89
2022/10/03 11:03:19;;;;;;;7.05;1.70;;;;;;;;;;5019125;28;20045;-90
2022/10/03 11:06:05;;;;;;;7.07;2.28;;;;;;;;;;4913259;29;20071;-89
2022/10/03 11:08:48;;;;;;;7.25;1.40;;;;;;;;;;4899148;29;20200;-89
2022/10/03 11:11:34;;;;;;;4.13;1.10;;;;;;;;;;4986650;28;20056;-87
2022/10/03 11:14:05;;;;;;;8.40;2.22;;;;;;;;;;4963556;28;20049;-89
2022/10/03 11:17:05;;;;;;;5.20;1.30;;;;;;;;;;4973969;28;20049;-88
2022/10/03 11:19:46;;;;;;;6.65;1.63;;;;;;;;;;5010595;28;20049;-88
2022/10/03 11:22:19;;;;;;;9.00;2.28;;;;;;;;;;4972640;28;20049;-89
2022/10/03 11:24:57;;;;;;;6.60;1.55;;;;;;;;;;5002078;28;20045;-89
2022/10/03 11:27:42;;;;;;;9.45;1.83;;;;;;;;;;4950994;28;20146;-89
2022/10/03 11:30:11;;;;;;;;;;;;;;;;;;4997808;28;20054;-89
2022/10/03 11:32:40;;;;;;;7.25;1.30;;;;;;;;;;4979255;28;19968;-89
2022/10/03 11:35:24;;;;;;;6.82;2.60;;;;;;;;;;5015438;28;20528;-89
2022/10/03 11:38:08;;;;;;;6.60;1.88;;;;;;;;;;4974395;28;20041;-86
2022/10/03 11:40:40;;;;;;;7.07;1.50;;;;;;;;;;4984088;28;20784;-89
2022/10/03 11:43:15;;;;;;;6.78;1.10;;;;;;;;;;5009880;28;20041;-89
2022/10/03 11:45:50;;;;;;;7.97;1.60;;;;;;;;;;5001489;28;20057;-89
2022/10/03 11:48:29;;;;;;;5.93;1.52;;;;;;;;;;5005834;28;20066;-89
2022/10/03 11:50:58;;;;;;;5.28;1.20;;;;;;;;;;4980034;28;20116;-88
2022/10/03 11:53:43;;;;;;;5.72;1.40;;;;;;;;;;4994012;28;20492;-89
2022/10/03 11:56:09;;;;;;;;;;;;;;;;;;5010934;28;20052;-88
2022/10/03 11:59:05;;;;;;;7.00;1.58;;;;;;;;;;5011257;28;19926;-88
2022/10/03 12:01:38;;;;;;;7.95;1.33;;;;;;;;;;4981845;28;20049;-89
2022/10/03 12:04:25;;;;;;;5.15;1.60;;;;;;;;;;5011443;28;20123;-89
2022/10/03 12:09:58;;;;;;;4.80;1.40;;;;;;;;;;5013956;28;20756;-89
2022/10/03 12:12:35;;;;;;;7.90;2.15;;;;;;;;;;5002599;28;20038;-89
2022/10/03 12:15:22;;;;;;;6.88;1.55;;;;;;;;;;4975424;28;20144;-89
2022/10/03 12:18:08;;;;;;;7.05;1.40;;;;;;;;;;4942704;28;20189;-89
2022/10/03 12:20:37;;;;;;;8.23;1.40;;;21.00;99.90;;;;;;4954492;28;20056;-88
2022/10/03 12:23:29;;;;;;;6.32;1.77;;;;;;;;;;5022078;28;20037;-89
2022/10/03 12:26:01;;;;;;;6.78;1.70;;;;;;;;;;4942417;28;20053;-88
2022/10/03 12:28:33;;;;;;;5.72;1.30;;;;;;;;;;5012256;28;20083;-89
2022/10/03 12:31:20;;;;;;;5.97;1.50;;;;;;;;;;4975692;28;20076;-89
2022/10/03 12:33:52;;;;;;;5.72;1.50;;;;;;;;;;4976809;28;20128;-88
2022/10/03 12:36:26;;;;;;;8.50;1.63;;;23.30;99.90;;;;;;5021981;28;20064;-89
2022/10/03 12:38:52;;;;;;;;;;;;;;;;;;5011321;28;20041;-86
2022/10/03 12:41:39;;;;;;;5.47;1.63;;;22.10;99.90;;;;;;4982214;28;19918;-89
2022/10/03 12:46:44;;;;;;;4.60;1.25;;;21.80;99.90;;;;;;4987478;28;20065;-63
2022/10/03 12:49:14;;;;;;;4.45;1.30;;;22.00;99.90;;;;;;4968112;28;20038;-62
2022/10/03 12:52:02;;;;;;;5.18;1.30;;;21.90;99.90;;;;;;4988154;28;20095;-63
2022/10/03 12:54:49;;;;;;;6.45;1.70;;;22.20;99.90;;;;;;4997855;28;20069;-63
2022/10/03 12:57:33;;;;;;;5.50;1.40;;;21.80;99.90;;;;;;4978161;28;20039;-62
2022/10/03 13:00:27;;;;;;;7.72;1.50;;;21.80;97.30;;;;;;4986147;28;20419;-63
2022/10/03 13:03:18;;;;;;;7.70;1.80;;;22.60;99.90;;;;;;4946361;28;20444;-63
2022/10/03 13:06:16;;;;;;;6.53;1.73;;;22.60;99.90;;;;;;4957320;28;20390;-63
2022/10/03 13:08:53;;;;;;;6.53;1.60;;;23.00;99.90;;;;;;4977075;28;20034;-63
2022/10/03 13:11:41;;;;;;;4.25;1.30;;;24.20;99.90;;;;;;4982539;28;20206;-64
2022/10/03 13:14:22;;;;;;;5.82;1.38;;;24.10;99.90;;;;;;4978234;28;20696;-63
2022/10/03 13:17:19;;;;;;;7.80;1.50;;;24.10;99.90;;;;;;4981418;28;20085;-62
2022/10/03 13:20:10;;;;;;;5.50;1.40;;;24.60;99.90;;;;;;4981881;28;20050;-63
2022/10/03 13:23:10;;;;;;;7.68;1.60;;;23.00;99.90;;;;;;4971343;28;20054;-63
2022/10/03 13:25:59;;;;;;;5.53;1.40;;;22.50;99.90;;;;;;4976631;28;20054;-63
2022/10/03 13:28:32;;;;;;;6.15;1.35;;;21.40;99.90;;;;;;4988429;28;20066;-63
2022/10/03 13:31:05;;;;;;;6.88;1.30;;;20.60;99.90;;;;;;4970611;28;20039;-63
2022/10/03 13:33:42;;;;;;;5.80;1.50;;;21.80;78.30;;;;;;4982540;28;20517;-63
2022/10/03 13:36:28;;;;;;;6.07;1.40;;;22.30;98.50;;;;;;4976290;28;20041;-64
2022/10/03 13:39:22;;;;;;;4.90;1.50;;;22.80;99.90;;;;;;4982378;28;20045;-62
2022/10/03 13:41:51;;;;;;;6.70;1.45;;;23.20;99.90;;;;;;4982565;28;20085;-63
2022/10/03 13:44:39;;;;;;;6.15;1.60;;;23.50;99.90;;;;;;4992624;28;20047;-63
2022/10/03 13:47:39;;;;;;;5.60;1.30;;;22.80;99.90;;;;;;4978529;28;20034;-62
2022/10/03 13:50:11;;;;;;;6.28;1.40;;;23.20;99.90;;;;;;4969725;28;20030;-63
2022/10/03 13:52:41;;;;;;;6.72;1.70;;;23.40;99.90;;;;;;4969618;28;20073;-63
2022/10/03 13:55:31;;;;;;;6.25;1.60;;;23.70;99.90;;;;;;4981229;28;20034;-63
2022/10/03 13:58:22;;;;;;;6.32;1.55;;;24.70;99.90;;;;;;4979459;28;20045;-62
2022/10/03 14:01:12;;;;;;;6.60;1.63;;;24.10;99.90;;;;;;4985717;28;20125;-63
2022/10/03 14:03:51;;;;;;;5.82;2.15;;;22.90;99.90;;;;;;4971156;28;20057;-63
2022/10/03 14:06:50;;;;;;;6.97;1.85;;;22.30;99.90;;;;;;4972860;28;20038;-63
2022/10/03 14:09:42;;;;;;;4.95;1.30;;;20.40;99.90;;;;;;4963854;28;20050;-63
2022/10/03 14:12:32;;;;;;;7.88;1.40;;;20.70;87.30;;;;;;4974919;28;20031;-62
2022/10/03 14:15:19;;;;;;;9.38;1.63;;;20.20;99.90;;;;;;4987210;28;20508;-63
2022/10/03 14:18:00;;;;;;;8.82;1.70;;;20.00;81.30;;;;;;4957111;28;20069;-62
2022/10/03 14:20:58;;;;;;;5.82;1.50;;;19.70;83.60;;;;;;4979676;28;20049;-63
2022/10/03 14:23:35;;;;;;;5.43;1.60;;;19.30;92.30;;;;;;4970968;28;20068;-63
2022/10/03 14:26:18;;;;;;;6.00;1.50;;;19.20;98.40;;;;;;4984685;28;20038;-62
2022/10/03 14:29:01;;;;;;;6.72;1.45;;;18.90;1.00;;;;;;4982678;28;20035;-63
2022/10/03 14:31:39;;;;;;;4.70;1.50;;;18.80;65.90;;;;;;4976679;28;20394;-63
2022/10/03 14:34:32;;;;;;;5.80;2.05;;;18.30;83.50;;;;;;4992178;28;20073;-63
2022/10/03 14:37:12;;;;;;;7.30;1.65;;;19.40;1.00;;;;;;4973131;28;20516;-63
2022/10/03 14:40:00;;;;;;;4.85;1.52;;;19.10;59.20;;;;;;4961409;28;20327;-63
2022/10/03 14:42:57;;;;;;;6.40;1.33;;;19.10;60.00;;;;;;4990513;28;20046;-62
2022/10/03 14:45:28;;;;;;;6.60;1.50;;;19.30;55.60;;;;;;4954875;28;20398;-62
2022/10/03 14:48:01;;;;;;;4.50;1.27;;;18.90;1.00;;;;;;4989118;28;20370;-63
2022/10/03 14:50:30;;;;;;;10.23;1.90;;;19.20;1.00;;;;;;4978844;28;20089;-62
2022/10/03 14:53:16;;;;;;;7.43;2.10;;;18.60;1.00;;;;;;5005333;23;20048;-72
2022/10/03 14:56:01;;;;;;;6.82;1.52;;;18.90;28.20;;;;;;5009878;28;20057;-71
2022/10/03 14:58:36;;;;;;;5.68;1.40;;;18.60;1.00;;;;;;5016574;28;20041;-72
2022/10/03 15:01:11;;;;;;;;;;;18.80;1.00;;;;;;5006491;28;20029;-71
2022/10/03 15:03:41;;;;;;;6.22;1.63;;;17.70;1.00;;;;;;5002652;28;19917;-71
2022/10/03 15:06:09;;;;;;;5.72;1.40;;;18.30;99.90;;;;;;5030391;28;20063;-71
2022/10/03 15:08:48;;;;;;;5.78;1.40;;;18.40;36.60;;;;;;5002071;28;20038;-72
2022/10/03 15:11:18;;;;;;;10.23;1.92;;;18.40;99.90;;;;;;5005204;28;20033;-71
2022/10/03 15:13:53;;;;;;;8.90;2.40;;;18.60;99.90;;;;;;5023776;28;20049;-72
2022/10/03 15:16:21;;;;;;;5.68;1.40;;;18.90;1.00;;;;;;4974284;28;20048;-72
2022/10/03 15:18:58;;;;;;;6.15;1.50;;;18.30;28.80;;;;;;5025197;28;20415;-72
2022/10/03 15:21:26;;;;;;;5.93;1.33;;;18.70;99.90;;;;;;5002070;28;20486;-72
2022/10/03 15:24:06;;;;;;;7.07;1.75;;;16.40;99.90;;;;;;4993241;28;20120;-71
2022/10/03 15:26:35;;;;;;;7.38;1.50;;;18.50;1.00;;;;;;5024569;28;20038;-71
2022/10/03 15:29:05;;;;;;;5.65;1.50;;;17.70;99.90;;;;;;5014184;28;20084;-71